aviador You're here:

KRID Decoded Metar

in
Report Time2017-05-23 20:35:00
UTC Time2017-05-23 20:41:15
Flight Rules vfr VFR
Wind160° at 06 kt
W.Decomp.*RWY 15: 5.9 kt HW 1.0 kt RCW
RWY 24: 1.0 kt HW 5.9 kt LCW
Visibility9999 m
Phenomena:N/A
Clouds:N/A
Expected CloudBase > 6,000 ft AGL from Temp-Dew spread
CeilingNone
Temp21°C
Dew Point06°C (38% RH)
AAT17.9°C
QNH1006 hPa
Raw Report
METAR KRID 232035Z AUTO 16006KT 10SM CLR 21/06 A2972 RMK AO2=

Extra information for KRID:More info

Social comments